createdAt,value
2022-12-23T00:01:06.074Z,6.70
2022-12-23T00:03:33.244Z,6.85
2022-12-23T00:06:00.413Z,6.68
2022-12-23T00:08:27.834Z,7.10
2022-12-23T00:10:56.585Z,7.22
2022-12-23T00:13:41.722Z,7.22
2022-12-23T00:16:13.963Z,7.43
2022-12-23T00:18:41.064Z,6.82
2022-12-23T00:21:10.653Z,7.68
2022-12-23T00:23:39.645Z,6.78
2022-12-23T00:26:06.840Z,7.80
2022-12-23T00:28:33.578Z,7.47
2022-12-23T00:31:02.532Z,8.20
2022-12-23T00:33:37.525Z,8.00
2022-12-23T00:36:25.530Z,8.40
2022-12-23T00:39:10.866Z,9.13
2022-12-23T00:41:56.040Z,7.70
2022-12-23T00:44:23.057Z,8.05
2022-12-23T00:46:49.605Z,8.45
2022-12-23T00:49:36.605Z,8.48
2022-12-23T00:52:04.680Z,8.75
2022-12-23T00:54:31.975Z,7.40
2022-12-23T00:56:59.092Z,8.20
2022-12-23T00:59:25.682Z,8.95
2022-12-23T01:02:10.819Z,7.38
2022-12-23T01:04:56.353Z,7.50
2022-12-23T01:07:23.545Z,7.45
2022-12-23T01:09:50.264Z,7.65
2022-12-23T01:12:16.773Z,7.15
2022-12-23T01:14:43.251Z,7.78
2022-12-23T01:17:09.835Z,7.85
2022-12-23T01:19:36.491Z,7.88
2022-12-23T01:22:03.111Z,8.60
2022-12-23T01:24:30.847Z,8.02
2022-12-23T01:26:57.429Z,8.88
2022-12-23T01:29:24.282Z,9.02
2022-12-23T01:31:50.783Z,8.65
2022-12-23T01:34:17.821Z,10.38
2022-12-23T01:36:44.294Z,9.15
2022-12-23T01:39:10.796Z,9.05
2022-12-23T01:41:55.942Z,9.85
2022-12-23T01:44:50.543Z,11.70
2022-12-23T01:47:41.599Z,9.65
2022-12-23T01:50:25.373Z,10.43
2022-12-23T01:53:04.612Z,10.68
2022-12-23T01:55:37.642Z,11.80
2022-12-23T01:58:28.326Z,12.13
2022-12-23T02:01:15.041Z,12.48
2022-12-23T02:03:45.327Z,13.50
2022-12-23T02:06:43.173Z,12.65
2022-12-23T02:09:17.119Z,13.18
2022-12-23T02:12:03.859Z,13.25
2022-12-23T02:14:56.413Z,12.95
2022-12-23T02:17:43.938Z,13.02
2022-12-23T02:20:19.365Z,14.93
2022-12-23T02:23:07.902Z,14.80
2022-12-23T02:25:49.513Z,15.25
2022-12-23T02:28:26.088Z,13.68
2022-12-23T02:31:01.334Z,14.40
2022-12-23T02:33:43.114Z,15.10
2022-12-23T02:36:23.455Z,15.57
2022-12-23T02:39:07.581Z,14.88
2022-12-23T02:42:00.373Z,13.23
2022-12-23T02:44:48.271Z,13.48
2022-12-23T02:47:20.268Z,13.68
2022-12-23T02:49:56.175Z,14.23
2022-12-23T02:52:26.508Z,14.63
2022-12-23T02:54:57.514Z,15.00
2022-12-23T02:57:28.676Z,14.68
2022-12-23T02:59:56.799Z,16.10
2022-12-23T03:02:23.315Z,16.00
2022-12-23T03:04:49.900Z,17.67
2022-12-23T03:07:24.154Z,18.10
2022-12-23T03:10:18.651Z,18.05
2022-12-23T03:12:55.167Z,18.30
2022-12-23T03:15:33.596Z,18.92
2022-12-23T03:18:12.190Z,18.70
2022-12-23T03:20:51.913Z,19.75
2022-12-23T03:23:33.973Z,19.20
2022-12-23T03:26:09.295Z,17.15
2022-12-23T03:28:44.937Z,18.42
2022-12-23T03:31:14.076Z,17.75
2022-12-23T03:33:42.767Z,17.23
2022-12-23T03:36:24.630Z,17.10
2022-12-23T03:38:52.124Z,15.85
2022-12-23T03:41:23.837Z,15.45
2022-12-23T03:43:57.651Z,16.20
2022-12-23T03:46:31.094Z,16.52
2022-12-23T03:49:01.115Z,17.90
2022-12-23T03:51:31.434Z,16.87
2022-12-23T03:54:01.935Z,16.92
2022-12-23T03:56:32.268Z,17.30
2022-12-23T03:59:01.646Z,17.05
2022-12-23T04:02:02.489Z,16.80
2022-12-23T04:04:46.982Z,16.98
2022-12-23T04:07:17.994Z,17.77
2022-12-23T04:12:11.716Z,17.92
2022-12-23T04:14:38.393Z,19.67
2022-12-23T04:17:04.871Z,20.63
2022-12-23T04:19:31.339Z,21.17
2022-12-23T04:21:57.898Z,20.60
2022-12-23T04:24:24.358Z,22.08
2022-12-23T04:26:50.838Z,21.30
2022-12-23T04:29:17.265Z,21.73
2022-12-23T04:31:43.761Z,21.15
2022-12-23T04:34:10.248Z,19.00
2022-12-23T04:36:36.658Z,18.88
2022-12-23T04:39:03.135Z,17.13
2022-12-23T04:41:29.760Z,16.55
2022-12-23T04:43:56.232Z,13.55
2022-12-23T04:46:22.711Z,13.95
2022-12-23T04:48:49.195Z,13.95
2022-12-23T04:51:15.737Z,13.30
2022-12-23T04:53:42.202Z,15.48
2022-12-23T04:56:08.667Z,14.30
2022-12-23T04:58:35.290Z,15.13
2022-12-23T05:01:10.245Z,15.75
2022-12-23T05:03:55.438Z,13.85
2022-12-23T05:06:21.832Z,14.48
2022-12-23T05:08:48.276Z,14.25
2022-12-23T05:11:14.733Z,12.10
2022-12-23T05:13:41.198Z,12.40
2022-12-23T05:16:07.882Z,12.45
2022-12-23T05:18:34.449Z,11.05
2022-12-23T05:21:00.889Z,11.40
2022-12-23T05:23:27.393Z,11.82
2022-12-23T05:25:54.374Z,12.02
2022-12-23T05:28:22.069Z,11.55
2022-12-23T05:30:48.872Z,12.18
2022-12-23T05:33:15.450Z,13.43
2022-12-23T05:35:41.926Z,13.73
2022-12-23T05:38:08.403Z,13.82
2022-12-23T05:40:34.927Z,12.77
2022-12-23T05:43:01.909Z,12.00
2022-12-23T05:45:28.379Z,13.52
2022-12-23T05:47:54.887Z,12.70
2022-12-23T05:50:21.381Z,10.48
2022-12-23T05:52:47.842Z,9.52
2022-12-23T05:55:14.374Z,10.88
2022-12-23T05:57:40.911Z,10.07
2022-12-23T06:00:09.691Z,9.77
2022-12-23T06:02:36.405Z,10.18
2022-12-23T06:05:03.217Z,10.32
2022-12-23T06:07:29.648Z,11.25
2022-12-23T06:09:56.119Z,12.27
2022-12-23T06:12:22.597Z,11.90
2022-12-23T06:14:49.089Z,13.00
2022-12-23T06:17:15.604Z,14.48
2022-12-23T06:19:42.126Z,15.25
2022-12-23T06:22:08.568Z,15.90
2022-12-23T06:24:35.046Z,15.65
2022-12-23T06:27:01.620Z,15.40
2022-12-23T06:29:31.267Z,16.52
2022-12-23T06:31:57.974Z,17.88
2022-12-23T06:34:24.418Z,17.98
2022-12-23T06:36:50.834Z,18.40
2022-12-23T06:39:17.333Z,16.98
2022-12-23T06:41:43.777Z,17.23
2022-12-23T06:44:10.241Z,16.80
2022-12-23T06:46:36.761Z,17.00
2022-12-23T06:49:09.063Z,19.08
2022-12-23T06:51:39.216Z,17.40
2022-12-23T06:54:05.712Z,16.35
2022-12-23T06:56:33.387Z,16.38
2022-12-23T06:58:59.864Z,15.93
2022-12-23T07:01:26.482Z,19.35
2022-12-23T07:03:53.176Z,15.25
2022-12-23T07:06:19.651Z,14.00
2022-12-23T07:08:46.181Z,14.35
2022-12-23T07:11:12.654Z,16.35
2022-12-23T07:13:39.161Z,15.27
2022-12-23T07:16:08.196Z,16.45
2022-12-23T07:18:35.286Z,17.83
2022-12-23T07:21:02.484Z,19.10
2022-12-23T07:23:29.060Z,20.85
2022-12-23T07:25:55.840Z,19.50
2022-12-23T07:28:25.315Z,19.73
2022-12-23T07:30:51.803Z,19.58
2022-12-23T07:33:18.283Z,20.08
2022-12-23T07:35:44.823Z,22.13
2022-12-23T07:38:11.283Z,19.80
2022-12-23T07:40:37.693Z,21.00
2022-12-23T07:43:04.141Z,19.73
2022-12-23T07:45:30.824Z,19.88
2022-12-23T07:47:59.538Z,19.52
2022-12-23T07:50:26.199Z,18.83
2022-12-23T07:52:53.665Z,18.48
2022-12-23T07:55:20.515Z,19.80
2022-12-23T07:57:51.404Z,16.80
2022-12-23T08:00:19.140Z,17.13
2022-12-23T08:02:46.108Z,18.77
2022-12-23T08:05:13.513Z,17.95
2022-12-23T08:07:40.595Z,18.80
2022-12-23T08:10:07.741Z,19.33
2022-12-23T08:12:34.708Z,20.05
2022-12-23T08:15:01.129Z,18.73
2022-12-23T08:17:29.193Z,19.73
2022-12-23T08:19:56.071Z,17.95
2022-12-23T08:22:23.084Z,18.77
2022-12-23T08:24:49.865Z,19.35
2022-12-23T08:27:16.456Z,16.27
2022-12-23T08:29:42.966Z,17.92
2022-12-23T08:32:09.484Z,17.70
2022-12-23T08:34:36.289Z,18.52
2022-12-23T08:37:02.852Z,17.90
2022-12-23T08:39:29.324Z,17.90
2022-12-23T08:41:56.128Z,17.83
2022-12-23T08:44:22.669Z,16.45
2022-12-23T08:46:49.376Z,14.90
2022-12-23T08:49:15.906Z,15.90
2022-12-23T08:51:42.633Z,14.77
2022-12-23T08:54:10.248Z,15.13
2022-12-23T08:56:40.923Z,15.10
2022-12-23T08:59:18.243Z,17.85
2022-12-23T09:01:45.904Z,13.75
2022-12-23T09:04:12.429Z,14.75
2022-12-23T09:06:41.151Z,15.98
2022-12-23T09:09:09.421Z,14.63
2022-12-23T09:11:36.554Z,15.02
2022-12-23T09:14:03.788Z,15.02
2022-12-23T09:16:30.903Z,15.25
2022-12-23T09:18:57.561Z,16.60
2022-12-23T09:21:24.492Z,14.07
2022-12-23T09:23:51.466Z,13.90
2022-12-23T09:26:29.865Z,13.07
2022-12-23T09:28:56.936Z,12.13
2022-12-23T09:31:23.982Z,12.82
2022-12-23T09:33:52.480Z,13.80
2022-12-23T09:36:19.904Z,14.07
2022-12-23T09:38:46.384Z,13.07
2022-12-23T09:41:47.509Z,12.65
2022-12-23T09:44:37.861Z,13.57
2022-12-23T09:47:15.693Z,13.45
2022-12-23T09:49:59.453Z,12.20
2022-12-23T09:52:33.988Z,14.15
2022-12-23T09:55:00.887Z,13.82
2022-12-23T09:57:40.586Z,13.23
2022-12-23T10:00:14.546Z,14.68
2022-12-23T10:03:00.079Z,13.45
2022-12-23T10:06:04.361Z,15.48
2022-12-23T10:08:34.669Z,13.82
2022-12-23T10:11:14.480Z,15.25
2022-12-23T10:13:45.397Z,14.63
2022-12-23T10:18:51.553Z,14.50
2022-12-23T10:21:24.128Z,15.50
2022-12-23T10:23:52.929Z,15.27
2022-12-23T10:26:22.992Z,22.58
2022-12-23T10:28:52.682Z,15.88
2022-12-23T10:31:40.402Z,14.52
2022-12-23T10:34:18.539Z,13.35
2022-12-23T10:37:20.712Z,15.38
2022-12-23T10:39:51.691Z,13.25
2022-12-23T10:42:23.022Z,13.90
2022-12-23T10:44:49.499Z,14.68
2022-12-23T10:47:29.300Z,14.52
2022-12-23T10:50:28.527Z,13.05
2022-12-23T10:52:56.832Z,12.88
2022-12-23T10:55:33.171Z,13.80
2022-12-23T10:58:09.411Z,11.98
2022-12-23T11:00:38.176Z,12.85
2022-12-23T11:03:15.623Z,13.32
2022-12-23T11:05:42.836Z,11.23
2022-12-23T11:08:09.708Z,12.02
2022-12-23T11:10:36.277Z,13.68
2022-12-23T11:13:03.148Z,12.48
2022-12-23T11:15:40.276Z,12.07
2022-12-23T11:18:10.874Z,11.45
2022-12-23T11:20:38.552Z,11.80
2022-12-23T11:23:06.502Z,13.45
2022-12-23T11:25:43.043Z,11.93
2022-12-23T11:28:18.231Z,11.60
2022-12-23T11:30:55.214Z,12.20
2022-12-23T11:33:30.801Z,11.70
2022-12-23T11:36:12.297Z,11.32
2022-12-23T11:38:49.258Z,13.68
2022-12-23T11:41:23.792Z,11.73
2022-12-23T11:43:56.964Z,11.50
2022-12-23T11:46:29.467Z,10.98
2022-12-23T11:49:06.006Z,11.18
2022-12-23T11:51:32.549Z,11.15
2022-12-23T11:54:00.824Z,10.82
2022-12-23T11:56:29.705Z,10.68
2022-12-23T11:59:21.650Z,10.98
2022-12-23T12:01:48.907Z,10.20
2022-12-23T12:04:21.445Z,10.85
2022-12-23T12:06:55.819Z,11.32
2022-12-23T12:09:23.811Z,11.15
2022-12-23T12:11:57.506Z,10.95
2022-12-23T12:14:34.217Z,11.05
2022-12-23T12:17:18.387Z,10.90
2022-12-23T12:20:02.254Z,9.65
2022-12-23T12:22:48.671Z,10.38
2022-12-23T12:25:20.857Z,9.95
2022-12-23T12:28:10.359Z,10.07
2022-12-23T12:30:41.748Z,9.43
2022-12-23T12:33:19.592Z,9.13
2022-12-23T12:36:07.668Z,8.93
2022-12-23T12:38:36.559Z,10.05
2022-12-23T12:41:28.150Z,10.43
2022-12-23T12:44:00.291Z,11.30
2022-12-23T12:46:49.763Z,9.80
2022-12-23T12:49:32.544Z,9.05
2022-12-23T12:52:07.696Z,8.73
2022-12-23T12:54:45.830Z,9.73
2022-12-23T12:57:17.104Z,8.65
2022-12-23T12:59:44.124Z,10.00
2022-12-23T13:02:23.140Z,9.32
2022-12-23T13:05:14.223Z,8.55
2022-12-23T13:07:59.458Z,8.10
2022-12-23T13:10:31.612Z,8.77
2022-12-23T13:13:03.859Z,8.05
2022-12-23T13:15:38.837Z,7.95
2022-12-23T13:18:31.640Z,10.57
2022-12-23T13:21:35.891Z,8.43
2022-12-23T13:24:08.391Z,6.95
2022-12-23T13:26:46.763Z,8.38
2022-12-23T13:29:41.213Z,7.30
2022-12-23T13:32:28.749Z,8.40
2022-12-23T13:35:03.951Z,6.97
2022-12-23T13:37:44.502Z,7.75
2022-12-23T13:40:29.390Z,6.15
2022-12-23T13:43:03.823Z,5.70
2022-12-23T13:45:33.949Z,5.68
2022-12-23T13:48:22.212Z,6.30
2022-12-23T13:51:04.418Z,7.50
2022-12-23T13:53:39.909Z,5.53
2022-12-23T13:56:32.698Z,6.30
2022-12-23T13:58:59.594Z,5.95
2022-12-23T14:01:44.009Z,5.53
2022-12-23T14:04:29.118Z,6.22
2022-12-23T14:06:58.184Z,6.75
2022-12-23T14:09:34.362Z,5.40
2022-12-23T14:12:20.878Z,5.88
2022-12-23T14:15:19.917Z,9.13
2022-12-23T14:18:02.720Z,5.18
2022-12-23T14:21:02.239Z,5.10
2022-12-23T14:24:14.680Z,5.90
2022-12-23T14:27:22.710Z,4.78
2022-12-23T14:30:35.824Z,4.95
2022-12-23T14:33:20.751Z,4.82
2022-12-23T14:35:47.293Z,4.80
2022-12-23T14:38:14.747Z,4.63
2022-12-23T14:41:18.922Z,8.88
2022-12-23T14:43:45.384Z,4.20
2022-12-23T14:46:37.342Z,5.30
2022-12-23T14:51:53.516Z,4.30
2022-12-23T14:54:37.803Z,5.90
2022-12-23T14:57:10.282Z,6.22
2022-12-23T15:00:00.549Z,5.07
2022-12-23T15:02:34.024Z,3.92
2022-12-23T15:05:01.315Z,4.53
2022-12-23T15:07:31.833Z,3.97
2022-12-23T15:10:01.428Z,3.63
2022-12-23T15:12:38.220Z,3.67
2022-12-23T15:15:15.981Z,3.47
2022-12-23T15:17:42.631Z,4.35
2022-12-23T15:20:25.424Z,4.55
2022-12-23T15:22:54.843Z,4.28
2022-12-23T15:25:27.244Z,4.60
2022-12-23T15:28:01.234Z,4.78
2022-12-23T15:30:35.465Z,5.07
2022-12-23T15:33:11.880Z,3.97
2022-12-23T15:35:48.386Z,4.25
2022-12-23T15:38:16.267Z,4.55
2022-12-23T15:40:43.157Z,4.22
2022-12-23T15:43:25.955Z,3.95
2022-12-23T15:45:52.831Z,3.67
2022-12-23T15:48:30.351Z,4.40
2022-12-23T15:51:05.258Z,4.25
2022-12-23T15:53:33.957Z,4.50
2022-12-23T15:56:05.073Z,4.10
2022-12-23T15:58:33.112Z,4.78
2022-12-23T16:01:00.421Z,5.50
2022-12-23T16:03:33.251Z,5.35
2022-12-23T16:06:10.447Z,5.15
2022-12-23T16:08:38.139Z,5.85
2022-12-23T16:11:15.641Z,5.97
2022-12-23T16:13:58.430Z,5.65
2022-12-23T16:16:42.300Z,8.60
2022-12-23T16:19:41.171Z,6.15
2022-12-23T16:22:20.767Z,6.72
2022-12-23T16:24:57.415Z,6.80
2022-12-23T16:27:36.042Z,6.60
2022-12-23T16:30:16.692Z,7.07
2022-12-23T16:32:50.528Z,8.55
2022-12-23T16:35:30.795Z,8.15
2022-12-23T16:38:00.157Z,9.02
2022-12-23T16:40:26.718Z,9.23
2022-12-23T16:42:53.417Z,10.15
2022-12-23T16:45:20.038Z,9.73
2022-12-23T16:47:46.620Z,11.35
2022-12-23T16:50:14.870Z,12.73
2022-12-23T16:52:41.498Z,13.82
2022-12-23T16:55:15.931Z,14.60
2022-12-23T16:57:43.005Z,14.38
2022-12-23T17:00:13.335Z,15.23
2022-12-23T17:02:39.841Z,15.82
2022-12-23T17:05:07.813Z,22.35
2022-12-23T17:07:35.869Z,17.45
2022-12-23T17:10:07.453Z,15.85
2022-12-23T17:12:33.984Z,16.63
2022-12-23T17:15:00.548Z,16.25
2022-12-23T17:17:27.037Z,9.43
2022-12-23T17:19:56.080Z,10.75
2022-12-23T17:22:22.825Z,11.27
2022-12-23T17:24:49.376Z,11.77
2022-12-23T17:27:18.263Z,11.20
2022-12-23T17:29:44.817Z,12.48
2022-12-23T17:32:15.130Z,13.50
2022-12-23T17:34:41.630Z,14.95
2022-12-23T17:37:19.541Z,14.88
2022-12-23T17:39:46.932Z,14.38
2022-12-23T17:42:25.622Z,15.38
2022-12-23T17:44:52.743Z,13.73
2022-12-23T17:47:21.356Z,13.43
2022-12-23T17:49:49.508Z,12.23
2022-12-23T17:52:18.070Z,10.00
2022-12-23T17:54:46.230Z,9.27
2022-12-23T17:57:23.253Z,8.05
2022-12-23T17:59:50.983Z,9.02
2022-12-23T18:02:20.514Z,7.47
2022-12-23T18:04:46.988Z,7.53
2022-12-23T18:07:13.479Z,6.43
2022-12-23T18:09:40.002Z,5.45
2022-12-23T18:12:06.923Z,7.10
2022-12-23T18:14:33.384Z,7.95
2022-12-23T18:16:59.974Z,6.82
2022-12-23T18:19:28.683Z,5.88
2022-12-23T18:21:55.195Z,6.13
2022-12-23T18:24:22.146Z,6.72
2022-12-23T18:26:48.732Z,6.63
2022-12-23T18:29:15.190Z,7.15
2022-12-23T18:31:50.626Z,5.95
2022-12-23T18:34:18.481Z,6.32
2022-12-23T18:36:45.597Z,6.43
2022-12-23T18:39:12.185Z,5.50
2022-12-23T18:41:38.640Z,5.88
2022-12-23T18:44:05.223Z,6.57
2022-12-23T18:46:31.725Z,5.45
2022-12-23T18:48:58.314Z,5.15
2022-12-23T18:51:24.811Z,4.95
2022-12-23T18:53:51.324Z,5.75
2022-12-23T18:56:20.884Z,5.78
2022-12-23T18:58:47.603Z,5.32
2022-12-23T19:01:15.221Z,5.20
2022-12-23T19:03:43.406Z,4.50
2022-12-23T19:06:12.691Z,5.75
2022-12-23T19:08:39.651Z,5.10
2022-12-23T19:11:20.254Z,4.70
2022-12-23T19:13:47.169Z,4.80
2022-12-23T19:16:15.933Z,4.63
2022-12-23T19:18:42.669Z,4.75
2022-12-23T19:21:09.489Z,4.57
2022-12-23T19:23:36.334Z,5.05
2022-12-23T19:26:06.270Z,5.80
2022-12-23T19:28:36.784Z,5.20
2022-12-23T19:31:16.152Z,6.07
2022-12-23T19:33:45.001Z,4.85
2022-12-23T19:36:17.169Z,5.40
2022-12-23T19:38:43.671Z,6.53
2022-12-23T19:41:10.677Z,7.00
2022-12-23T19:43:38.401Z,5.72
2022-12-23T19:46:07.535Z,5.75
2022-12-23T19:48:34.173Z,6.03
2022-12-23T19:51:11.973Z,6.22
2022-12-23T19:53:39.780Z,6.63
2022-12-23T19:56:07.605Z,6.00
2022-12-23T19:58:38.380Z,5.45
2022-12-23T20:01:09.179Z,7.47
2022-12-23T20:06:04.017Z,6.15
2022-12-23T20:08:30.552Z,6.43
2022-12-23T20:11:04.160Z,6.35
2022-12-23T20:13:30.729Z,5.53
2022-12-23T20:15:57.337Z,6.32
2022-12-23T20:18:23.886Z,5.30
2022-12-23T20:20:50.384Z,7.90
2022-12-23T20:23:17.179Z,7.20
2022-12-23T20:25:43.662Z,6.38
2022-12-23T20:28:11.033Z,6.85
2022-12-23T20:30:37.616Z,5.68
2022-12-23T20:33:04.215Z,5.72
2022-12-23T20:35:31.145Z,6.50
2022-12-23T20:37:57.569Z,6.85
2022-12-23T20:40:24.059Z,6.53
2022-12-23T20:42:50.627Z,6.43
2022-12-23T20:45:17.179Z,7.28
2022-12-23T20:47:43.631Z,7.63
2022-12-23T20:50:10.151Z,6.07
2022-12-23T20:52:36.606Z,6.07
2022-12-23T20:55:03.437Z,5.15
2022-12-23T20:57:31.597Z,5.63
2022-12-23T20:59:59.312Z,6.00
2022-12-23T21:02:25.988Z,5.65
2022-12-23T21:04:52.533Z,7.35
2022-12-23T21:07:18.978Z,5.72
2022-12-23T21:09:45.398Z,5.57
2022-12-23T21:12:12.024Z,6.78
2022-12-23T21:14:38.477Z,4.78
2022-12-23T21:17:05.015Z,5.30
2022-12-23T21:19:31.539Z,5.93
2022-12-23T21:21:58.184Z,5.53
2022-12-23T21:24:24.814Z,5.20
2022-12-23T21:26:56.357Z,5.18
2022-12-23T21:29:27.403Z,5.63
2022-12-23T21:31:55.097Z,5.97
2022-12-23T21:34:21.945Z,5.00
2022-12-23T21:36:48.462Z,5.03
2022-12-23T21:39:16.168Z,6.53
2022-12-23T21:41:43.018Z,6.32
2022-12-23T21:44:10.576Z,6.03
2022-12-23T21:46:37.114Z,5.93
2022-12-23T21:49:03.894Z,7.40
2022-12-23T21:51:39.684Z,6.70
2022-12-23T23:20:42.480Z,7.78
2022-12-23T23:23:09.231Z,5.15
2022-12-23T23:25:35.774Z,4.32
2022-12-23T23:28:02.460Z,4.43
2022-12-23T23:30:29.040Z,5.07
2022-12-23T23:32:55.655Z,4.90
2022-12-23T23:35:22.127Z,4.28
2022-12-23T23:37:48.642Z,5.15
2022-12-23T23:40:15.378Z,5.18
2022-12-23T23:42:41.819Z,4.43
2022-12-23T23:45:08.628Z,3.80
2022-12-23T23:47:35.099Z,4.43
2022-12-23T23:50:02.356Z,4.50
2022-12-23T23:52:29.201Z,5.57
2022-12-23T23:54:55.895Z,6.43
2022-12-23T23:57:22.848Z,5.30
2022-12-23T23:59:49.500Z,4.28
